createdAt,value
2018-11-14T00:00:50.235Z,9.28
2018-11-14T00:03:18.548Z,9.23
2018-11-14T00:05:46.810Z,9.19
2018-11-14T00:08:15.080Z,9.16
2018-11-14T00:10:43.373Z,9.12
2018-11-14T00:13:11.646Z,9.08
2018-11-14T00:15:39.996Z,9.03
2018-11-14T00:18:08.273Z,9.02
2018-11-14T00:20:36.543Z,9.03
2018-11-14T00:23:04.936Z,9.04
2018-11-14T00:25:33.224Z,9.07
2018-11-14T00:28:01.838Z,9.09
2018-11-14T00:30:29.799Z,9.13
2018-11-14T00:32:58.540Z,9.14
2018-11-14T00:35:26.869Z,9.15
2018-11-14T00:37:55.137Z,9.13
2018-11-14T00:40:23.439Z,9.12
2018-11-14T00:42:51.744Z,9.14
2018-11-14T00:45:21.200Z,9.15
2018-11-14T00:47:49.991Z,9.14
2018-11-14T00:50:18.911Z,9.13
2018-11-14T00:52:47.377Z,9.13
2018-11-14T00:55:22.499Z,9.12
2018-11-14T00:57:51.815Z,9.13
2018-11-14T01:00:21.403Z,9.13
2018-11-14T01:02:49.667Z,9.10
2018-11-14T01:05:18.706Z,9.11
2018-11-14T01:07:46.966Z,9.09
2018-11-14T01:10:16.587Z,9.08
2018-11-14T01:12:45.564Z,9.07
2018-11-14T01:15:15.904Z,9.05
2018-11-14T01:17:44.363Z,9.07
2018-11-14T01:20:16.544Z,9.07
2018-11-14T01:22:45.435Z,9.06
2018-11-14T01:25:14.913Z,9.01
2018-11-14T01:27:43.623Z,8.97
2018-11-14T01:30:16.199Z,8.94
2018-11-14T01:32:45.383Z,8.91
2018-11-14T01:35:14.103Z,8.91
2018-11-14T01:37:42.391Z,8.91
2018-11-14T01:40:13.996Z,8.90
2018-11-14T01:42:42.487Z,8.87
2018-11-14T01:45:11.356Z,8.80
2018-11-14T01:47:39.638Z,8.72
2018-11-14T01:50:09.299Z,8.66
2018-11-14T01:52:37.830Z,8.60
2018-11-14T01:55:07.187Z,8.53
2018-11-14T01:57:35.455Z,8.48
2018-11-14T02:00:03.772Z,8.41
2018-11-14T02:02:32.040Z,8.36
2018-11-14T02:05:00.402Z,8.33
2018-11-14T02:07:28.767Z,8.27
2018-11-14T02:09:57.043Z,8.24
2018-11-14T02:12:25.324Z,8.27
2018-11-14T02:14:53.724Z,8.29
2018-11-14T02:17:22.012Z,8.29
2018-11-14T02:19:50.299Z,8.29
2018-11-14T02:22:18.598Z,8.28
2018-11-14T02:24:46.866Z,8.28
2018-11-14T02:27:15.420Z,8.25
2018-11-14T02:29:43.694Z,8.21
2018-11-14T02:32:12.011Z,8.16
2018-11-14T02:34:40.368Z,8.08
2018-11-14T02:37:08.614Z,7.97
2018-11-14T02:39:36.883Z,7.92
2018-11-14T02:42:05.476Z,7.88
2018-11-14T02:44:33.758Z,7.85
2018-11-14T02:47:02.064Z,7.82
2018-11-14T02:49:30.350Z,7.79
2018-11-14T02:51:58.644Z,7.77
2018-11-14T02:54:26.926Z,7.76
2018-11-14T02:56:55.203Z,7.69
2018-11-14T02:59:23.447Z,7.64
2018-11-14T03:01:51.752Z,7.62
2018-11-14T03:04:20.015Z,7.61
2018-11-14T03:06:48.289Z,7.62
2018-11-14T03:09:16.864Z,7.57
2018-11-14T03:11:45.139Z,7.57
2018-11-14T03:14:13.452Z,7.57
2018-11-14T03:16:41.741Z,7.55
2018-11-14T03:19:10.009Z,7.49
2018-11-14T03:21:38.291Z,7.43
2018-11-14T03:24:06.819Z,7.38
2018-11-14T03:26:35.131Z,7.34
2018-11-14T03:29:03.416Z,7.30
2018-11-14T03:31:31.684Z,7.25
2018-11-14T03:33:59.966Z,7.24
2018-11-14T03:36:28.256Z,7.24
2018-11-14T03:38:56.564Z,7.22
2018-11-14T03:41:24.830Z,7.19
2018-11-14T03:43:53.208Z,7.15
2018-11-14T03:46:21.486Z,7.13
2018-11-14T03:48:49.771Z,7.16
2018-11-14T03:51:18.055Z,7.16
2018-11-14T03:53:46.332Z,7.11
2018-11-14T03:56:14.645Z,7.08
2018-11-14T03:58:42.926Z,7.01
2018-11-14T04:01:11.225Z,6.97
2018-11-14T04:03:39.523Z,6.97
2018-11-14T04:06:07.816Z,6.94
2018-11-14T04:08:36.127Z,6.86
2018-11-14T04:11:04.440Z,6.84
2018-11-14T04:13:32.731Z,6.83
2018-11-14T04:16:01.063Z,6.80
2018-11-14T04:18:29.352Z,6.76
2018-11-14T04:20:57.641Z,6.76
2018-11-14T04:23:25.935Z,6.76
2018-11-14T04:25:54.228Z,6.71
2018-11-14T04:28:22.491Z,6.65
2018-11-14T04:30:50.742Z,6.63
2018-11-14T04:33:19.032Z,6.60
2018-11-14T04:35:47.315Z,6.60
2018-11-14T04:38:15.630Z,6.59
2018-11-14T04:40:43.904Z,6.56
2018-11-14T04:43:12.214Z,6.55
2018-11-14T04:45:40.547Z,6.49
2018-11-14T04:48:08.912Z,6.45
2018-11-14T04:50:37.167Z,6.43
2018-11-14T04:53:05.755Z,6.44
2018-11-14T04:55:34.025Z,6.38
2018-11-14T04:58:02.418Z,6.37
2018-11-14T05:00:30.701Z,6.35
2018-11-14T05:02:58.984Z,6.35
2018-11-14T05:05:27.336Z,6.37
2018-11-14T05:07:55.627Z,6.36
2018-11-14T05:10:25.882Z,6.30
2018-11-14T05:12:54.271Z,6.29
2018-11-14T05:15:23.630Z,6.28
2018-11-14T05:17:52.479Z,6.22
2018-11-14T05:20:21.447Z,6.19
2018-11-14T05:22:50.123Z,6.17
2018-11-14T05:25:18.806Z,6.15
2018-11-14T05:27:47.084Z,6.13
2018-11-14T05:30:17.540Z,6.12
2018-11-14T05:32:46.910Z,6.10
2018-11-14T05:35:15.817Z,6.07
2018-11-14T05:37:44.299Z,6.05
2018-11-14T05:40:15.545Z,6.00
2018-11-14T05:42:44.330Z,5.95
2018-11-14T05:45:15.992Z,5.94
2018-11-14T05:47:44.688Z,5.93
2018-11-14T05:50:14.895Z,5.88
2018-11-14T05:52:43.208Z,5.87
2018-11-14T05:55:12.107Z,5.90
2018-11-14T05:57:40.381Z,5.86
2018-11-14T06:00:12.164Z,5.83
2018-11-14T06:02:40.479Z,5.84
2018-11-14T06:05:09.243Z,5.85
2018-11-14T06:07:37.774Z,5.87
2018-11-14T06:10:07.328Z,5.85
2018-11-14T06:12:35.635Z,5.81
2018-11-14T06:15:04.124Z,5.77
2018-11-14T06:17:32.363Z,5.71
2018-11-14T06:20:00.647Z,5.65
2018-11-14T06:22:28.926Z,5.65
2018-11-14T06:25:12.022Z,5.65
2018-11-14T06:27:40.299Z,5.68
2018-11-14T06:30:08.730Z,5.68
2018-11-14T06:32:36.999Z,5.66
2018-11-14T06:35:05.923Z,5.63
2018-11-14T06:37:34.312Z,5.61
2018-11-14T06:40:02.656Z,5.58
2018-11-14T06:42:30.970Z,5.59
2018-11-14T06:44:59.329Z,5.63
2018-11-14T06:47:27.586Z,5.63
2018-11-14T06:49:55.874Z,5.61
2018-11-14T06:52:24.130Z,5.57
2018-11-14T06:54:52.430Z,5.55
2018-11-14T06:57:20.776Z,5.49
2018-11-14T06:59:49.407Z,5.45
2018-11-14T07:02:17.639Z,5.44
2018-11-14T07:04:45.969Z,5.45
2018-11-14T07:07:14.221Z,5.50
2018-11-14T07:09:42.460Z,5.57
2018-11-14T07:12:10.746Z,5.65
2018-11-14T07:14:39.053Z,5.70
2018-11-14T07:17:07.364Z,5.69
2018-11-14T07:19:35.722Z,5.66
2018-11-14T07:22:03.984Z,5.62
2018-11-14T07:24:32.355Z,5.66
2018-11-14T07:27:00.673Z,5.72
2018-11-14T07:29:28.974Z,5.74
2018-11-14T07:31:57.297Z,5.74
2018-11-14T07:34:25.496Z,5.75
2018-11-14T07:36:53.765Z,5.80
2018-11-14T07:39:22.016Z,5.86
2018-11-14T07:41:50.303Z,5.89
2018-11-14T07:44:18.595Z,5.90
2018-11-14T07:46:46.866Z,5.92
2018-11-14T07:49:15.203Z,5.98
2018-11-14T07:51:43.417Z,6.07
2018-11-14T07:54:11.691Z,6.17
2018-11-14T07:56:40.002Z,6.22
2018-11-14T07:59:08.260Z,6.29
2018-11-14T08:01:36.564Z,6.31
2018-11-14T08:04:04.970Z,6.34
2018-11-14T08:06:33.228Z,6.42
2018-11-14T08:09:01.559Z,6.47
2018-11-14T08:11:29.827Z,6.52
2018-11-14T08:13:58.116Z,6.59
2018-11-14T08:16:26.379Z,6.67
2018-11-14T08:18:54.697Z,6.79
2018-11-14T08:21:22.933Z,6.91
2018-11-14T08:23:51.204Z,7.05
2018-11-14T08:26:19.627Z,7.14
2018-11-14T08:28:47.864Z,7.25
2018-11-14T08:31:16.139Z,7.34
2018-11-14T08:33:44.392Z,7.48
2018-11-14T08:36:12.688Z,7.63
2018-11-14T08:38:40.973Z,7.74
2018-11-14T08:41:09.257Z,7.87
2018-11-14T08:43:37.584Z,7.97
2018-11-14T08:46:06.516Z,8.03
2018-11-14T08:48:34.795Z,8.12
2018-11-14T08:51:03.083Z,8.20
2018-11-14T08:53:31.427Z,8.24
2018-11-14T08:55:59.726Z,8.29
2018-11-14T08:58:28.101Z,8.37
2018-11-14T09:00:56.403Z,8.47
2018-11-14T09:03:24.787Z,8.58
2018-11-14T09:05:53.148Z,8.68
2018-11-14T09:08:21.738Z,8.79
2018-11-14T09:10:50.097Z,8.88
2018-11-14T09:13:18.379Z,8.95
2018-11-14T09:15:46.732Z,9.04
2018-11-14T09:18:15.483Z,9.10
2018-11-14T09:20:43.796Z,9.15
2018-11-14T09:23:12.075Z,9.19
2018-11-14T09:25:40.330Z,9.27
2018-11-14T09:28:08.611Z,9.34
2018-11-14T09:30:36.875Z,9.40
2018-11-14T09:33:05.994Z,9.45
2018-11-14T09:35:34.258Z,9.50
2018-11-14T09:38:02.532Z,9.59
2018-11-14T09:40:31.195Z,9.67
2018-11-14T09:42:59.479Z,9.74
2018-11-14T09:45:28.986Z,9.80
2018-11-14T09:47:57.258Z,9.85
2018-11-14T09:50:27.596Z,9.89
2018-11-14T09:52:59.252Z,9.96
2018-11-14T09:55:27.600Z,10.02
2018-11-14T09:57:55.961Z,10.03
2018-11-14T10:00:25.486Z,10.08
2018-11-14T10:02:58.493Z,10.12
2018-11-14T10:05:26.844Z,10.17
2018-11-14T10:07:55.158Z,10.24
2018-11-14T10:10:23.841Z,10.28
2018-11-14T10:12:52.111Z,10.35
2018-11-14T10:15:21.617Z,10.39
2018-11-14T10:17:50.079Z,10.45
2018-11-14T10:20:19.698Z,10.50
2018-11-14T10:22:48.025Z,10.55
2018-11-14T10:25:17.222Z,10.62
2018-11-14T10:27:46.067Z,10.68
2018-11-14T10:30:16.696Z,10.73
2018-11-14T10:32:45.813Z,10.76
2018-11-14T10:35:14.091Z,10.80
2018-11-14T10:37:42.653Z,10.81
2018-11-14T10:40:13.490Z,10.85
2018-11-14T10:42:42.423Z,10.88
2018-11-14T10:45:12.391Z,10.92
2018-11-14T10:47:40.995Z,10.97
2018-11-14T10:50:12.779Z,11.02
2018-11-14T10:52:41.073Z,11.11
2018-11-14T10:55:12.838Z,11.17
2018-11-14T10:57:41.252Z,11.22
2018-11-14T11:00:19.943Z,11.25
2018-11-14T11:02:53.568Z,11.30
2018-11-14T11:06:30.945Z,11.35
2018-11-14T11:09:04.399Z,11.40
2018-11-14T11:11:37.994Z,11.45
2018-11-14T11:14:11.535Z,11.48
2018-11-14T11:16:45.275Z,11.49
2018-11-14T11:19:14.372Z,11.47
2018-11-14T11:21:43.302Z,11.48
2018-11-14T11:24:12.167Z,11.53
2018-11-14T11:26:40.412Z,11.58
2018-11-14T11:29:09.892Z,11.64
2018-11-14T11:31:38.303Z,11.69
2018-11-14T11:34:07.299Z,11.75
2018-11-14T11:36:35.653Z,11.76
2018-11-14T11:39:05.656Z,11.81
2018-11-14T11:41:33.942Z,11.87
2018-11-14T11:44:02.419Z,11.89
2018-11-14T11:46:30.694Z,11.90
2018-11-14T11:48:59.342Z,11.92
2018-11-14T11:51:27.590Z,11.94
2018-11-14T11:53:55.951Z,11.99
2018-11-14T11:56:24.216Z,12.01
2018-11-14T11:58:52.472Z,12.00
2018-11-14T12:01:20.780Z,11.99
2018-11-14T12:03:49.076Z,12.00
2018-11-14T12:06:17.431Z,12.03
2018-11-14T12:08:45.635Z,12.04
2018-11-14T12:11:13.912Z,12.07
2018-11-14T12:13:42.242Z,12.08
2018-11-14T12:16:10.495Z,12.11
2018-11-14T12:18:38.759Z,12.11
2018-11-14T12:21:07.272Z,12.11
2018-11-14T12:23:35.581Z,12.09
2018-11-14T12:26:03.915Z,12.12
2018-11-14T12:28:32.160Z,12.12
2018-11-14T12:31:00.531Z,12.14
2018-11-14T12:33:28.688Z,12.18
2018-11-14T12:35:56.964Z,12.21
2018-11-14T12:38:25.232Z,12.23
2018-11-14T12:40:53.506Z,12.22
2018-11-14T12:43:21.754Z,12.20
2018-11-14T12:45:50.037Z,12.22
2018-11-14T12:48:18.290Z,12.25
2018-11-14T12:50:46.605Z,12.28
2018-11-14T12:53:14.875Z,12.29
2018-11-14T12:55:43.172Z,12.27
2018-11-14T12:58:11.441Z,12.24
2018-11-14T13:00:39.727Z,12.23
2018-11-14T13:03:08.019Z,12.25
2018-11-14T13:05:36.299Z,12.25
2018-11-14T13:08:04.630Z,12.25
2018-11-14T13:10:32.981Z,12.25
2018-11-14T13:13:01.275Z,12.26
2018-11-14T13:15:29.542Z,12.25
2018-11-14T13:17:57.932Z,12.25
2018-11-14T13:20:26.289Z,12.22
2018-11-14T13:22:54.542Z,12.21
2018-11-14T13:25:22.855Z,12.19
2018-11-14T13:27:51.128Z,12.18
2018-11-14T13:30:20.731Z,12.17
2018-11-14T13:32:49.944Z,12.15
2018-11-14T13:35:19.325Z,12.16
2018-11-14T13:37:48.452Z,12.14
2018-11-14T13:40:16.804Z,12.15
2018-11-14T13:42:45.238Z,12.14
2018-11-14T13:45:14.759Z,12.11
2018-11-14T13:47:43.419Z,12.08
2018-11-14T13:50:14.023Z,12.09
2018-11-14T13:52:42.223Z,12.07
2018-11-14T13:55:12.172Z,12.07
2018-11-14T13:57:41.076Z,12.06
2018-11-14T14:00:11.171Z,12.05
2018-11-14T14:02:39.480Z,12.07
2018-11-14T14:05:09.779Z,12.07
2018-11-14T14:07:38.046Z,12.04
2018-11-14T14:10:07.438Z,12.05
2018-11-14T14:12:36.116Z,12.03
2018-11-14T14:15:04.863Z,12.03
2018-11-14T14:17:33.135Z,12.03
2018-11-14T14:20:01.439Z,12.03
2018-11-14T14:22:29.695Z,12.03
2018-11-14T14:24:57.943Z,12.01
2018-11-14T14:27:26.294Z,11.95
2018-11-14T14:29:54.628Z,11.93
2018-11-14T14:32:23.144Z,11.91
2018-11-14T14:34:51.452Z,11.89
2018-11-14T14:37:19.737Z,11.86
2018-11-14T14:39:48.034Z,11.83
2018-11-14T14:42:16.415Z,11.81
2018-11-14T14:44:44.727Z,11.80
2018-11-14T14:47:13.147Z,11.77
2018-11-14T14:49:41.438Z,11.74
2018-11-14T14:52:09.700Z,11.70
2018-11-14T14:54:37.962Z,11.66
2018-11-14T14:57:06.384Z,11.64
2018-11-14T14:59:34.668Z,11.58
2018-11-14T15:02:02.985Z,11.54
2018-11-14T15:04:31.284Z,11.50
2018-11-14T15:06:59.584Z,11.47
2018-11-14T15:09:28.120Z,11.45
2018-11-14T15:11:56.387Z,11.43
2018-11-14T15:14:24.674Z,11.40
2018-11-14T15:16:52.943Z,11.39
2018-11-14T15:19:21.214Z,11.30
2018-11-14T15:21:49.506Z,11.21
2018-11-14T15:24:18.012Z,11.10
2018-11-14T15:26:46.296Z,11.01
2018-11-14T15:29:14.567Z,10.94
2018-11-14T15:31:42.850Z,10.85
2018-11-14T15:34:11.128Z,10.77
2018-11-14T15:36:39.443Z,10.69
2018-11-14T15:39:09.401Z,10.58
2018-11-14T15:41:37.775Z,10.50
2018-11-14T15:44:06.181Z,10.43
2018-11-14T15:46:34.478Z,10.33
2018-11-14T15:49:02.752Z,10.28
2018-11-14T15:51:31.051Z,10.22
2018-11-14T15:53:59.310Z,10.15
2018-11-14T15:56:27.582Z,10.08
2018-11-14T15:58:55.866Z,9.99
2018-11-14T16:01:24.144Z,9.90
2018-11-14T16:03:52.415Z,9.81
2018-11-14T16:06:20.741Z,9.75
2018-11-14T16:08:48.971Z,9.66
2018-11-14T16:11:17.282Z,9.59
2018-11-14T16:13:49.717Z,9.53
2018-11-14T16:16:17.976Z,9.49
2018-11-14T16:18:46.253Z,9.45
2018-11-14T16:21:14.514Z,9.42
2018-11-14T16:23:42.799Z,9.40
2018-11-14T16:26:11.042Z,9.36
2018-11-14T16:28:39.320Z,9.30
2018-11-14T16:31:07.603Z,9.29
2018-11-14T16:33:35.890Z,9.28
2018-11-14T16:36:04.211Z,9.28
2018-11-14T16:38:32.501Z,9.22
2018-11-14T16:41:00.806Z,9.16
2018-11-14T16:43:29.084Z,9.12
2018-11-14T16:45:57.378Z,9.06
2018-11-14T16:48:25.654Z,8.97
2018-11-14T16:50:53.972Z,8.90
2018-11-14T16:53:22.316Z,8.84
2018-11-14T16:55:50.632Z,8.79
2018-11-14T16:58:18.901Z,8.75
2018-11-14T17:00:47.211Z,8.73
2018-11-14T17:03:15.490Z,8.71
2018-11-14T17:05:43.844Z,8.67
2018-11-14T17:08:12.106Z,8.63
2018-11-14T17:10:40.378Z,8.61
2018-11-14T17:13:08.669Z,8.63
2018-11-14T17:15:36.932Z,8.61
2018-11-14T17:18:05.591Z,8.56
2018-11-14T17:20:33.869Z,8.48
2018-11-14T17:23:02.131Z,8.46
2018-11-14T17:25:30.462Z,8.43
2018-11-14T17:27:58.695Z,8.50
2018-11-14T17:30:28.007Z,8.56
2018-11-14T17:32:56.465Z,8.55
2018-11-14T17:35:24.750Z,8.49
2018-11-14T17:37:53.035Z,8.39
2018-11-14T17:40:23.656Z,8.27
2018-11-14T17:42:52.556Z,8.18
2018-11-14T17:45:23.822Z,8.13
2018-11-14T17:47:52.486Z,8.11
2018-11-14T17:50:23.412Z,8.09
2018-11-14T17:52:52.728Z,8.05
2018-11-14T17:55:21.816Z,8.01
2018-11-14T17:57:50.043Z,7.96
2018-11-14T18:00:20.558Z,7.92
2018-11-14T18:02:48.861Z,7.89
2018-11-14T18:05:19.562Z,7.85
2018-11-14T18:07:48.511Z,7.86
2018-11-14T18:10:19.058Z,7.84
2018-11-14T18:12:48.274Z,7.80
2018-11-14T18:15:16.821Z,7.72
2018-11-14T18:17:45.423Z,7.64
2018-11-14T18:20:15.828Z,7.62
2018-11-14T18:22:44.863Z,7.64
2018-11-14T18:25:13.732Z,7.64
2018-11-14T18:27:42.032Z,7.66
2018-11-14T18:30:14.901Z,7.67
2018-11-14T18:32:43.172Z,7.63
2018-11-14T18:35:13.738Z,7.62
2018-11-14T18:37:42.714Z,7.54
2018-11-14T18:40:13.295Z,7.43
2018-11-14T18:42:41.903Z,7.38
2018-11-14T18:45:12.880Z,7.35
2018-11-14T18:47:41.430Z,7.33
2018-11-14T18:50:11.164Z,7.34
2018-11-14T18:52:39.487Z,7.34
2018-11-14T18:55:09.024Z,7.38
2018-11-14T18:57:37.433Z,7.38
2018-11-14T19:00:08.107Z,7.34
2018-11-14T19:02:36.387Z,7.31
2018-11-14T19:05:05.329Z,7.31
2018-11-14T19:07:33.649Z,7.30
2018-11-14T19:10:02.265Z,7.29
2018-11-14T19:12:30.611Z,7.30
2018-11-14T19:14:58.894Z,7.28
2018-11-14T19:17:27.161Z,7.27
2018-11-14T19:19:55.437Z,7.27
2018-11-14T19:22:23.715Z,7.26
2018-11-14T19:24:58.350Z,7.26
2018-11-14T19:27:26.645Z,7.23
2018-11-14T19:29:54.924Z,7.19
2018-11-14T19:32:23.208Z,7.16
2018-11-14T19:34:51.896Z,7.14
2018-11-14T19:37:20.192Z,7.10
2018-11-14T19:39:48.467Z,7.06
2018-11-14T19:42:16.723Z,7.05
2018-11-14T19:44:44.995Z,7.05
2018-11-14T19:47:13.283Z,7.08
2018-11-14T19:49:41.606Z,7.13
2018-11-14T19:52:09.882Z,7.13
2018-11-14T19:54:38.157Z,7.15
2018-11-14T19:57:07.018Z,7.10
2018-11-14T19:59:35.296Z,7.08
2018-11-14T20:02:03.555Z,7.09
2018-11-14T20:04:31.934Z,7.13
2018-11-14T20:07:00.223Z,7.16
2018-11-14T20:09:28.489Z,7.19
2018-11-14T20:11:56.767Z,7.21
2018-11-14T20:14:25.102Z,7.17
2018-11-14T20:16:53.383Z,7.16
2018-11-14T20:19:21.691Z,7.13
2018-11-14T20:21:49.956Z,7.10
2018-11-14T20:24:18.239Z,7.10
2018-11-14T20:26:46.808Z,7.10
2018-11-14T20:29:15.089Z,7.09
2018-11-14T20:31:43.475Z,7.05
2018-11-14T20:34:11.651Z,7.04
2018-11-14T20:36:39.955Z,7.00
2018-11-14T20:39:10.372Z,6.94
2018-11-14T20:41:38.671Z,6.89
2018-11-14T20:44:07.783Z,6.92
2018-11-14T20:46:36.147Z,6.95
2018-11-14T20:49:04.642Z,6.93
2018-11-14T20:51:32.883Z,6.91
2018-11-14T20:54:01.194Z,6.94
2018-11-14T20:56:29.560Z,6.92
2018-11-14T20:58:57.804Z,6.90
2018-11-14T21:01:26.078Z,6.92
2018-11-14T21:03:54.923Z,6.91
2018-11-14T21:06:23.280Z,6.87
2018-11-14T21:08:51.576Z,6.80
2018-11-14T21:11:19.864Z,6.75
2018-11-14T21:13:48.145Z,6.67
2018-11-14T21:16:16.451Z,6.60
2018-11-14T21:18:44.728Z,6.56
2018-11-14T21:21:13.004Z,6.54
2018-11-14T21:23:41.348Z,6.53
2018-11-14T21:26:09.568Z,6.50
2018-11-14T21:28:37.863Z,6.50
2018-11-14T21:31:06.186Z,6.49
2018-11-14T21:33:34.823Z,6.46
2018-11-14T21:36:03.100Z,6.39
2018-11-14T21:38:31.429Z,6.35
2018-11-14T21:40:59.631Z,6.32
2018-11-14T21:43:27.952Z,6.27
2018-11-14T21:45:56.194Z,6.22
2018-11-14T21:48:24.473Z,6.16
2018-11-14T21:50:53.615Z,6.11
2018-11-14T21:53:21.983Z,6.10
2018-11-14T21:55:50.216Z,6.14
2018-11-14T21:58:18.491Z,6.17
2018-11-14T22:00:46.773Z,6.13
2018-11-14T22:03:15.045Z,6.11
2018-11-14T22:05:43.334Z,6.12
2018-11-14T22:08:11.734Z,6.14
2018-11-14T22:10:40.031Z,6.15
2018-11-14T22:13:08.314Z,6.16
2018-11-14T22:15:36.564Z,6.20
2018-11-14T22:18:04.835Z,6.22
2018-11-14T22:20:33.107Z,6.17
2018-11-14T22:23:01.382Z,6.12
2018-11-14T22:25:30.323Z,6.12
2018-11-14T22:27:58.650Z,6.10
2018-11-14T22:30:31.148Z,6.06
2018-11-14T22:32:59.659Z,6.00
2018-11-14T22:35:29.694Z,5.91
2018-11-14T22:37:57.866Z,5.90
2018-11-14T22:40:27.448Z,5.91
2018-11-14T22:42:55.746Z,5.95
2018-11-14T22:45:31.780Z,5.95
2018-11-14T22:48:00.032Z,5.95
2018-11-14T22:50:28.566Z,5.91
2018-11-14T22:52:56.844Z,5.89
2018-11-14T22:55:25.800Z,5.87
2018-11-14T22:57:54.401Z,5.86
2018-11-14T23:00:31.839Z,5.86
2018-11-14T23:03:01.387Z,5.86
2018-11-14T23:05:29.684Z,5.85
2018-11-14T23:07:58.652Z,5.82
2018-11-14T23:10:27.331Z,5.80
2018-11-14T23:12:55.701Z,5.75
2018-11-14T23:15:24.435Z,5.71
2018-11-14T23:17:52.867Z,5.67
2018-11-14T23:20:21.271Z,5.68
2018-11-14T23:22:50.253Z,5.69
2018-11-14T23:25:19.042Z,5.72
2018-11-14T23:27:48.549Z,5.73
2018-11-14T23:30:17.727Z,5.66
2018-11-14T23:32:47.292Z,5.60
2018-11-14T23:35:16.856Z,5.56
2018-11-14T23:37:47.090Z,5.48
2018-11-14T23:40:15.383Z,5.38
2018-11-14T23:42:43.681Z,5.29
2018-11-14T23:45:13.992Z,5.22
2018-11-14T23:47:42.940Z,5.18
2018-11-14T23:50:16.016Z,5.14
2018-11-14T23:52:45.322Z,5.14
2018-11-14T23:55:14.026Z,5.11
2018-11-14T23:57:42.328Z,5.06
